Time,TemperatureF,DewpointF,PressureIn,WindDirection,WindDirectionDegrees,WindSpeedMPH,WindSpeedGustMPH,Humidity,HourlyPrecipIn,Conditions,Clouds,dailyrainin,SoftwareType,DateUTC
2013-10-06 00:00:00,39.2,29.0,30.74,SSE,148,0.0,1.0,66,0.00,,,0.00,weatherlink.com 1.10,2013-10-06 06:00:00,
2013-10-06 00:15:00,39.5,29.0,30.74,SE,146,0.0,1.0,66,0.00,,,0.00,weatherlink.com 1.10,2013-10-06 06:15:00,
2013-10-06 00:30:00,37.6,29.0,30.74,SSE,147,0.0,0.0,70,0.00,,,0.00,weatherlink.com 1.10,2013-10-06 06:30:00,
2013-10-06 00:45:00,36.0,27.0,30.74,SSE,148,0.0,0.0,71,0.00,,,0.00,weatherlink.com 1.10,2013-10-06 06:45:00,
2013-10-06 01:00:00,36.9,28.0,30.74,SSE,148,0.0,1.0,70,0.00,,,0.00,weatherlink.com 1.10,2013-10-06 07:00:00,
2013-10-06 01:15:00,36.1,28.0,30.74,SE,146,0.0,0.0,72,0.00,,,0.00,weatherlink.com 1.10,2013-10-06 07:15:00,
2013-10-06 01:30:00,36.3,28.0,30.74,SE,146,0.0,0.0,71,0.00,,,0.00,weatherlink.com 1.10,2013-10-06 07:30:00,
2013-10-06 01:45:00,36.4,28.0,30.74,SSE,148,0.0,1.0,71,0.00,,,0.00,weatherlink.com 1.10,2013-10-06 07:45:00,
2013-10-06 02:00:00,35.6,27.0,30.74,SE,145,0.0,0.0,71,0.00,,,0.00,weatherlink.com 1.10,2013-10-06 08:00:00,
2013-10-06 02:15:00,36.0,27.0,30.74,North,359,0.0,0.0,69,0.00,,,0.00,weatherlink.com 1.10,2013-10-06 08:15:00,
2013-10-06 02:30:00,35.6,27.0,30.74,North,359,0.0,0.0,72,0.00,,,0.00,weatherlink.com 1.10,2013-10-06 08:30:00,
2013-10-06 02:45:00,35.5,27.0,30.74,North,359,0.0,1.0,72,0.00,,,0.00,weatherlink.com 1.10,2013-10-06 08:45:00,
2013-10-06 03:00:00,35.3,28.0,30.74,North,359,0.0,0.0,74,0.00,,,0.00,weatherlink.com 1.10,2013-10-06 09:00:00,
2013-10-06 03:15:00,33.8,27.0,30.73,North,359,0.0,0.0,77,0.00,,,0.00,weatherlink.com 1.10,2013-10-06 09:15:00,
2013-10-06 03:30:00,33.6,28.0,30.73,North,359,0.0,0.0,79,0.00,,,0.00,weatherlink.com 1.10,2013-10-06 09:30:00,
2013-10-06 03:45:00,34.2,27.0,30.73,North,358,0.0,1.0,76,0.00,,,0.00,weatherlink.com 1.10,2013-10-06 09:45:00,
2013-10-06 04:00:00,33.4,27.0,30.73,North,358,0.0,1.0,77,0.00,,,0.00,weatherlink.com 1.10,2013-10-06 10:00:00,
2013-10-06 04:15:00,32.6,27.0,30.73,North,353,0.0,1.0,80,0.00,,,0.00,weatherlink.com 1.10,2013-10-06 10:15:00,
2013-10-06 04:31:00,32.6,27.0,30.73,NNW,345,0.0,2.0,81,0.00,,,0.00,weatherlink.com 1.10,2013-10-06 10:31:00,
2013-10-06 04:46:00,34.0,28.0,30.73,NNW,345,0.0,1.0,79,0.00,,,0.00,weatherlink.com 1.10,2013-10-06 10:46:00,
2013-10-06 05:01:00,33.6,28.0,30.72,NNW,345,0.0,1.0,79,0.00,,,0.00,weatherlink.com 1.10,2013-10-06 11:01:00,
2013-10-06 05:16:00,34.3,28.0,30.72,NNE,29,0.0,2.0,79,0.00,,,0.00,weatherlink.com 1.10,2013-10-06 11:16:00,
2013-10-06 05:31:00,34.3,28.0,30.72,NNE,29,0.0,2.0,78,0.00,,,0.00,weatherlink.com 1.10,2013-10-06 11:31:00,
2013-10-06 05:46:00,33.9,28.0,30.72,NE,34,0.0,1.0,79,0.00,,,0.00,weatherlink.com 1.10,2013-10-06 11:46:00,
2013-10-06 06:01:00,32.7,28.0,30.72,NE,34,0.0,1.0,81,0.00,,,0.00,weatherlink.com 1.10,2013-10-06 12:01:00,
2013-10-06 06:16:00,31.9,27.0,30.71,North,356,0.0,1.0,83,0.00,,,0.00,weatherlink.com 1.10,2013-10-06 12:16:00,
2013-10-06 06:31:00,33.1,28.0,30.71,NE,38,0.0,4.0,82,0.00,,,0.00,weatherlink.com 1.10,2013-10-06 12:31:00,
2013-10-06 06:46:00,32.9,28.0,30.71,North,354,1.0,2.0,81,0.00,,,0.00,weatherlink.com 1.10,2013-10-06 12:46:00,
2013-10-06 07:01:00,32.7,28.0,30.71,NNE,23,0.0,1.0,81,0.00,,,0.00,weatherlink.com 1.10,2013-10-06 13:01:00,
2013-10-06 07:16:00,32.9,28.0,30.71,NNE,27,0.0,2.0,82,0.00,,,0.00,weatherlink.com 1.10,2013-10-06 13:16:00,
2013-10-06 07:31:00,33.0,28.0,30.71,NNE,23,0.0,1.0,82,0.00,,,0.00,weatherlink.com 1.10,2013-10-06 13:31:00,
2013-10-06 07:46:00,31.9,28.0,30.71,NNE,23,0.0,1.0,84,0.00,,,0.00,weatherlink.com 1.10,2013-10-06 13:46:00,
2013-10-06 08:01:00,31.6,27.0,30.71,NE,42,0.0,1.0,83,0.00,,,0.00,weatherlink.com 1.10,2013-10-06 14:01:00,
2013-10-06 08:16:00,31.6,27.0,30.71,NE,43,0.0,0.0,84,0.00,,,0.00,weatherlink.com 1.10,2013-10-06 14:16:00,
2013-10-06 08:31:00,32.9,28.0,30.72,NE,42,0.0,1.0,83,0.00,,,0.00,weatherlink.com 1.10,2013-10-06 14:31:00,
2013-10-06 08:46:00,32.7,29.0,30.71,NE,42,0.0,0.0,87,0.00,,,0.00,weatherlink.com 1.10,2013-10-06 14:46:00,
2013-10-06 09:01:00,34.3,31.0,30.72,NE,44,0.0,1.0,88,0.00,,,0.00,weatherlink.com 1.10,2013-10-06 15:01:00,
2013-10-06 09:16:00,37.0,32.0,30.71,NE,44,0.0,1.0,82,0.00,,,0.00,weatherlink.com 1.10,2013-10-06 15:16:00,
2013-10-06 09:31:00,40.0,33.0,30.71,NNE,33,3.0,3.0,75,0.00,,,0.00,weatherlink.com 1.10,2013-10-06 15:31:00,
2013-10-06 09:46:00,42.7,33.0,30.71,South,191,1.0,4.0,68,0.01,,,0.01,weatherlink.com 1.10,2013-10-06 15:46:00,
2013-10-06 10:01:00,51.0,40.0,30.70,SSE,152,0.0,0.0,66,0.01,,,0.01,weatherlink.com 1.10,2013-10-06 16:01:00,
2013-10-06 10:16:00,57.0,40.0,30.64,SSE,153,0.0,0.0,54,0.01,,,0.01,weatherlink.com 1.10,2013-10-06 16:16:00,
2013-10-06 10:31:00,60.1,41.0,30.55,SSE,154,0.0,0.0,49,0.01,,,0.01,weatherlink.com 1.10,2013-10-06 16:31:00,
2013-10-06 10:46:00,61.4,40.0,29.81,SSE,153,0.0,0.0,45,0.00,,,0.01,weatherlink.com 1.10,2013-10-06 16:46:00,
2013-10-06 11:01:00,62.1,40.0,29.84,SSE,153,0.0,0.0,44,0.00,,,0.01,weatherlink.com 1.10,2013-10-06 17:01:00,
2013-10-06 11:16:00,62.7,40.0,29.73,SSE,154,0.0,0.0,43,0.00,,,0.01,weatherlink.com 1.10,2013-10-06 17:16:00,
2013-10-06 11:31:00,63.4,40.0,30.31,SSE,155,0.0,0.0,42,0.00,,,0.01,weatherlink.com 1.10,2013-10-06 17:31:00,
2013-10-06 11:46:00,64.3,41.0,30.49,SSE,153,0.0,0.0,43,0.00,,,0.01,weatherlink.com 1.10,2013-10-06 17:46:00,
2013-10-06 12:02:00,65.4,42.0,30.48,SSE,154,0.0,0.0,43,0.00,,,0.01,weatherlink.com 1.10,2013-10-06 18:02:00,
2013-10-06 12:17:00,66.3,42.0,30.48,SSE,153,0.0,0.0,42,0.00,,,0.01,weatherlink.com 1.10,2013-10-06 18:17:00,